createdAt,value
2018-03-28T00:02:12.147Z,99.90
2018-03-28T00:04:45.625Z,99.90
2018-03-28T00:07:19.171Z,99.90
2018-03-28T00:09:52.817Z,99.90
2018-03-28T00:12:26.513Z,99.90
2018-03-28T00:15:00.081Z,99.90
2018-03-28T00:17:34.562Z,99.90
2018-03-28T00:20:08.137Z,99.90
2018-03-28T00:22:41.758Z,99.90
2018-03-28T00:25:15.319Z,99.90
2018-03-28T00:27:48.982Z,99.90
2018-03-28T00:30:22.525Z,99.90
2018-03-28T00:32:56.077Z,99.90
2018-03-28T00:35:30.384Z,99.90
2018-03-28T00:38:04.105Z,99.90
2018-03-28T00:40:37.675Z,99.90
2018-03-28T00:43:11.294Z,99.90
2018-03-28T00:45:44.849Z,99.90
2018-03-28T00:48:18.478Z,99.90
2018-03-28T00:50:52.014Z,99.90
2018-03-28T00:53:25.618Z,99.90
2018-03-28T00:55:59.988Z,99.90
2018-03-28T00:58:33.643Z,99.90
2018-03-28T01:01:07.426Z,99.90
2018-03-28T01:03:41.004Z,99.90
2018-03-28T01:06:14.505Z,99.90
2018-03-28T01:08:48.136Z,99.90
2018-03-28T01:11:21.798Z,99.90
2018-03-28T01:13:55.517Z,99.90
2018-03-28T01:16:29.115Z,99.90
2018-03-28T01:19:02.705Z,99.90
2018-03-28T01:21:36.322Z,99.90
2018-03-28T01:24:09.919Z,99.90
2018-03-28T01:26:43.514Z,99.90
2018-03-28T01:29:17.147Z,99.90
2018-03-28T01:31:50.659Z,99.90
2018-03-28T01:34:25.051Z,99.90
2018-03-28T01:36:58.566Z,99.90
2018-03-28T01:39:32.144Z,99.90
2018-03-28T01:42:05.650Z,99.90
2018-03-28T01:44:39.237Z,99.90
2018-03-28T01:47:12.827Z,99.90
2018-03-28T01:49:46.423Z,99.90
2018-03-28T01:52:19.954Z,99.90
2018-03-28T01:54:53.541Z,99.90
2018-03-28T01:57:27.193Z,99.90
2018-03-28T02:00:00.859Z,99.90
2018-03-28T02:02:35.062Z,99.90
2018-03-28T02:05:08.788Z,99.90
2018-03-28T02:07:42.478Z,99.90
2018-03-28T02:10:16.338Z,99.90
2018-03-28T02:12:49.986Z,99.90
2018-03-28T02:15:23.563Z,99.90
2018-03-28T02:17:57.177Z,99.90
2018-03-28T02:20:30.760Z,99.90
2018-03-28T02:23:04.376Z,99.90
2018-03-28T02:25:37.961Z,99.90
2018-03-28T02:28:11.656Z,99.90
2018-03-28T02:30:45.270Z,99.90
2018-03-28T02:33:18.910Z,99.90
2018-03-28T02:35:52.478Z,99.90
2018-03-28T02:38:26.241Z,99.90
2018-03-28T02:40:59.732Z,99.90
2018-03-28T02:43:33.418Z,99.90
2018-03-28T02:46:08.642Z,99.90
2018-03-28T02:48:42.233Z,99.90
2018-03-28T02:51:15.814Z,99.90
2018-03-28T02:53:49.358Z,99.90
2018-03-28T02:56:22.946Z,99.90
2018-03-28T02:58:56.535Z,99.90
2018-03-28T03:01:30.353Z,99.90
2018-03-28T03:04:03.971Z,99.90
2018-03-28T03:06:38.549Z,99.90
2018-03-28T03:09:13.005Z,99.90
2018-03-28T03:11:46.570Z,99.90
2018-03-28T03:14:20.093Z,99.90
2018-03-28T03:16:53.947Z,99.90
2018-03-28T03:19:29.354Z,99.90
2018-03-28T03:22:02.953Z,99.90
2018-03-28T03:24:36.546Z,99.90
2018-03-28T03:27:10.838Z,99.90
2018-03-28T03:29:44.522Z,99.90
2018-03-28T03:32:18.975Z,99.90
2018-03-28T03:34:54.000Z,99.90
2018-03-28T03:37:27.590Z,99.90
2018-03-28T03:40:01.183Z,99.90
2018-03-28T03:42:34.821Z,99.90
2018-03-28T03:45:08.339Z,99.90
2018-03-28T03:47:42.027Z,99.90
2018-03-28T03:50:15.611Z,99.90
2018-03-28T03:52:49.192Z,99.90
2018-03-28T03:55:22.726Z,99.90
2018-03-28T03:57:56.323Z,99.90
2018-03-28T04:00:29.901Z,99.90
2018-03-28T04:03:03.614Z,99.90
2018-03-28T04:05:37.157Z,99.90
2018-03-28T04:08:10.786Z,99.90
2018-03-28T04:10:44.401Z,99.90
2018-03-28T04:13:17.977Z,99.90
2018-03-28T04:15:51.647Z,99.90
2018-03-28T04:18:25.382Z,99.90
2018-03-28T04:20:59.013Z,99.90
2018-03-28T04:23:32.610Z,99.90
2018-03-28T04:26:06.353Z,99.90
2018-03-28T04:28:40.051Z,99.90
2018-03-28T04:31:13.730Z,99.90
2018-03-28T04:33:47.265Z,99.90
2018-03-28T04:36:21.744Z,99.90
2018-03-28T04:38:55.471Z,99.90
2018-03-28T04:41:29.054Z,99.90
2018-03-28T04:44:02.642Z,99.90
2018-03-28T04:46:36.243Z,99.90
2018-03-28T04:49:09.834Z,99.90
2018-03-28T04:51:44.283Z,99.90
2018-03-28T04:54:17.937Z,99.90
2018-03-28T04:56:51.572Z,99.90
2018-03-28T04:59:25.193Z,99.90
2018-03-28T05:01:58.693Z,99.90
2018-03-28T05:04:33.001Z,99.90
2018-03-28T05:07:07.410Z,99.90
2018-03-28T05:09:41.723Z,99.90
2018-03-28T05:12:15.225Z,99.90
2018-03-28T05:14:48.832Z,99.90
2018-03-28T05:17:22.368Z,99.90
2018-03-28T05:19:56.655Z,99.90
2018-03-28T05:22:30.436Z,99.90
2018-03-28T05:25:03.939Z,99.90
2018-03-28T05:27:37.538Z,99.90
2018-03-28T05:30:11.124Z,99.90
2018-03-28T05:32:44.862Z,99.90
2018-03-28T05:35:19.239Z,99.90
2018-03-28T05:37:52.893Z,99.90
2018-03-28T05:40:26.545Z,99.90
2018-03-28T05:43:00.066Z,99.90
2018-03-28T05:45:33.598Z,99.90
2018-03-28T05:48:07.171Z,99.90
2018-03-28T05:50:40.757Z,99.90
2018-03-28T05:53:14.448Z,99.90
2018-03-28T05:55:48.076Z,99.90
2018-03-28T05:58:21.758Z,99.90
2018-03-28T06:00:55.382Z,99.90
2018-03-28T06:03:28.961Z,99.90
2018-03-28T06:06:02.497Z,99.90
2018-03-28T06:08:36.198Z,99.90
2018-03-28T06:11:09.893Z,99.90
2018-03-28T06:13:44.200Z,99.90
2018-03-28T06:16:17.796Z,99.90
2018-03-28T06:18:52.101Z,99.90
2018-03-28T06:21:25.719Z,99.90
2018-03-28T06:23:59.302Z,99.90
2018-03-28T06:26:33.642Z,99.90
2018-03-28T06:29:08.154Z,99.90
2018-03-28T06:31:41.881Z,99.90
2018-03-28T06:34:15.443Z,99.90
2018-03-28T06:36:49.100Z,99.90
2018-03-28T06:39:22.757Z,99.90
2018-03-28T06:41:56.359Z,99.90
2018-03-28T06:44:30.881Z,99.90
2018-03-28T06:47:04.602Z,99.90
2018-03-28T06:49:38.100Z,99.90
2018-03-28T06:52:11.609Z,99.90
2018-03-28T06:54:45.188Z,99.90
2018-03-28T06:57:18.703Z,99.90
2018-03-28T06:59:52.281Z,99.90
2018-03-28T07:02:25.885Z,99.90
2018-03-28T07:04:59.417Z,99.90
2018-03-28T07:07:33.731Z,99.90
2018-03-28T07:10:07.433Z,99.90
2018-03-28T07:12:41.001Z,99.90
2018-03-28T07:15:14.538Z,99.90
2018-03-28T07:17:48.117Z,99.90
2018-03-28T07:20:21.704Z,99.90
2018-03-28T07:22:55.242Z,99.90
2018-03-28T07:25:28.815Z,99.90
2018-03-28T07:28:02.330Z,99.90
2018-03-28T07:30:35.906Z,99.90
2018-03-28T07:33:10.242Z,99.90
2018-03-28T07:35:43.906Z,99.90
2018-03-28T07:38:17.533Z,99.90
2018-03-28T07:40:51.116Z,99.90
2018-03-28T07:43:25.633Z,99.90
2018-03-28T07:45:59.231Z,99.90
2018-03-28T07:48:34.291Z,99.90
2018-03-28T07:51:08.029Z,99.90
2018-03-28T07:53:42.311Z,99.90
2018-03-28T07:56:15.991Z,99.90
2018-03-28T07:58:49.504Z,99.90
2018-03-28T08:01:23.046Z,99.90
2018-03-28T08:03:57.409Z,99.90
2018-03-28T08:06:30.909Z,99.90
2018-03-28T08:09:04.451Z,99.90
2018-03-28T08:11:37.982Z,99.90
2018-03-28T08:14:11.525Z,99.90
2018-03-28T08:16:45.132Z,99.90
2018-03-28T08:19:18.645Z,99.90
2018-03-28T08:21:52.233Z,99.90
2018-03-28T08:24:25.732Z,99.90
2018-03-28T08:26:59.441Z,99.90
2018-03-28T08:29:32.945Z,99.90
2018-03-28T08:32:06.525Z,99.90
2018-03-28T08:34:40.033Z,99.90
2018-03-28T08:37:13.601Z,99.90
2018-03-28T08:39:47.316Z,99.90
2018-03-28T08:42:20.894Z,99.90
2018-03-28T08:44:54.657Z,99.90
2018-03-28T08:47:28.240Z,99.90
2018-03-28T08:50:01.817Z,99.90
2018-03-28T08:52:36.237Z,99.90
2018-03-28T08:55:09.932Z,99.90
2018-03-28T08:57:43.504Z,99.90
2018-03-28T09:00:17.042Z,99.90
2018-03-28T09:02:50.626Z,99.90
2018-03-28T09:05:24.301Z,99.90
2018-03-28T09:07:58.070Z,99.90
2018-03-28T09:10:31.616Z,99.90
2018-03-28T09:13:05.250Z,99.90
2018-03-28T09:15:38.772Z,99.90
2018-03-28T09:18:12.366Z,99.90
2018-03-28T09:20:45.933Z,99.90
2018-03-28T09:23:19.464Z,99.90
2018-03-28T09:25:52.977Z,99.90
2018-03-28T09:28:26.552Z,99.90
2018-03-28T09:31:00.157Z,99.90
2018-03-28T09:33:33.743Z,99.90
2018-03-28T09:36:08.190Z,99.90
2018-03-28T09:38:41.808Z,99.90
2018-03-28T09:41:15.386Z,99.90
2018-03-28T09:43:48.978Z,99.90
2018-03-28T09:46:22.535Z,99.90
2018-03-28T09:48:56.173Z,99.90
2018-03-28T09:51:29.779Z,99.90
2018-03-28T09:54:03.253Z,99.90
2018-03-28T09:56:37.604Z,99.90
2018-03-28T09:59:12.123Z,99.90
2018-03-28T10:01:51.558Z,99.90
2018-03-28T10:04:26.889Z,99.90
2018-03-28T10:07:00.632Z,99.90
2018-03-28T10:09:34.198Z,99.90
2018-03-28T10:12:07.827Z,99.10
2018-03-28T10:14:41.419Z,99.30
2018-03-28T10:17:14.997Z,99.40
2018-03-28T10:19:48.602Z,99.40
2018-03-28T10:22:22.930Z,99.10
2018-03-28T10:24:56.692Z,99.10
2018-03-28T10:27:30.953Z,99.60
2018-03-28T10:30:04.565Z,99.60
2018-03-28T10:32:38.141Z,99.90
2018-03-28T10:35:11.766Z,99.80
2018-03-28T10:37:45.391Z,99.40
2018-03-28T10:40:19.808Z,97.30
2018-03-28T10:42:53.574Z,97.30
2018-03-28T10:45:27.081Z,96.90
2018-03-28T10:48:01.683Z,96.90
2018-03-28T10:50:35.494Z,96.80
2018-03-28T10:53:09.168Z,97.30
2018-03-28T10:55:42.718Z,94.50
2018-03-28T10:58:16.278Z,95.50
2018-03-28T11:00:50.613Z,96.50
2018-03-28T11:03:24.987Z,97.30
2018-03-28T11:05:58.531Z,97.20
2018-03-28T11:08:32.062Z,95.70
2018-03-28T11:11:05.625Z,96.10
2018-03-28T11:13:39.162Z,95.60
2018-03-28T11:16:12.751Z,96.80
2018-03-28T11:18:46.317Z,97.10
2018-03-28T11:21:19.865Z,96.50
2018-03-28T11:23:53.446Z,97.10
2018-03-28T11:26:26.993Z,96.80
2018-03-28T11:29:00.557Z,97.80
2018-03-28T11:31:35.062Z,96.00
2018-03-28T11:34:08.811Z,95.90
2018-03-28T11:36:42.461Z,94.70
2018-03-28T11:39:16.179Z,95.80
2018-03-28T11:41:49.781Z,94.40
2018-03-28T11:44:24.105Z,94.80
2018-03-28T11:46:57.814Z,94.70
2018-03-28T11:49:31.348Z,95.40
2018-03-28T11:52:05.658Z,95.30
2018-03-28T11:54:40.001Z,93.80
2018-03-28T11:57:14.453Z,94.90
2018-03-28T11:59:48.166Z,94.90
2018-03-28T12:02:21.714Z,93.30
2018-03-28T12:04:55.271Z,92.40
2018-03-28T12:07:28.947Z,92.50
2018-03-28T12:10:02.611Z,93.40
2018-03-28T12:12:36.143Z,93.80
2018-03-28T12:15:09.754Z,93.60
2018-03-28T12:17:43.318Z,93.10
2018-03-28T12:20:17.024Z,93.30
2018-03-28T12:22:50.586Z,91.90
2018-03-28T12:25:24.129Z,91.90
2018-03-28T12:27:57.690Z,92.30
2018-03-28T12:30:31.256Z,92.30
2018-03-28T12:33:04.797Z,91.90
2018-03-28T12:35:39.064Z,92.80
2018-03-28T12:38:12.745Z,92.80
2018-03-28T12:40:46.280Z,93.00
2018-03-28T12:43:19.846Z,91.30
2018-03-28T12:45:53.389Z,92.10
2018-03-28T12:48:26.975Z,91.40
2018-03-28T12:51:01.462Z,92.50
2018-03-28T12:53:35.950Z,92.50
2018-03-28T12:56:09.627Z,92.50
2018-03-28T12:58:43.372Z,92.70
2018-03-28T13:01:16.898Z,92.40
2018-03-28T13:03:50.634Z,93.20
2018-03-28T13:06:24.214Z,93.40
2018-03-28T13:08:57.738Z,93.30
2018-03-28T13:11:31.325Z,94.00
2018-03-28T13:14:04.881Z,93.70
2018-03-28T13:16:39.138Z,94.30
2018-03-28T13:19:12.750Z,94.30
2018-03-28T13:21:46.314Z,93.40
2018-03-28T13:24:19.870Z,93.40
2018-03-28T13:26:53.438Z,92.50
2018-03-28T13:29:27.006Z,92.50
2018-03-28T13:32:00.624Z,92.10
2018-03-28T13:34:34.186Z,91.80
2018-03-28T13:37:07.807Z,92.30
2018-03-28T13:39:41.491Z,92.60
2018-03-28T13:42:14.967Z,93.60
2018-03-28T13:44:48.546Z,94.00
2018-03-28T13:47:22.106Z,93.00
2018-03-28T13:49:55.785Z,93.70
2018-03-28T13:52:29.473Z,93.90
2018-03-28T13:55:03.026Z,93.20
2018-03-28T13:57:36.571Z,93.50
2018-03-28T14:00:10.137Z,92.80
2018-03-28T14:02:43.737Z,93.10
2018-03-28T14:05:17.332Z,93.30
2018-03-28T14:07:50.965Z,93.20
2018-03-28T14:10:24.527Z,92.50
2018-03-28T14:12:58.166Z,92.00
2018-03-28T14:15:31.759Z,91.20
2018-03-28T14:18:05.349Z,91.80
2018-03-28T14:20:38.954Z,91.70
2018-03-28T14:23:12.546Z,92.50
2018-03-28T14:25:46.126Z,91.60
2018-03-28T14:28:19.795Z,91.30
2018-03-28T14:30:53.496Z,91.10
2018-03-28T14:33:27.058Z,92.80
2018-03-28T14:36:00.695Z,92.90
2018-03-28T14:38:34.249Z,92.80
2018-03-28T14:41:07.863Z,93.00
2018-03-28T14:43:41.460Z,92.90
2018-03-28T14:46:15.042Z,93.60
2018-03-28T14:48:48.671Z,93.60
2018-03-28T14:51:22.526Z,94.40
2018-03-28T14:53:56.032Z,94.70
2018-03-28T14:56:29.589Z,94.80
2018-03-28T14:59:03.155Z,95.00
2018-03-28T15:01:37.490Z,96.80
2018-03-28T15:04:11.005Z,96.80
2018-03-28T15:06:44.584Z,97.70
2018-03-28T15:09:18.313Z,99.20
2018-03-28T15:11:51.890Z,98.80
2018-03-28T15:14:25.477Z,99.90
2018-03-28T15:16:59.019Z,99.90
2018-03-28T15:19:32.714Z,99.90
2018-03-28T15:22:06.294Z,99.90
2018-03-28T15:24:39.875Z,99.90
2018-03-28T15:27:13.461Z,99.90
2018-03-28T15:29:47.157Z,99.90
2018-03-28T15:32:20.840Z,99.90
2018-03-28T15:34:54.327Z,99.90
2018-03-28T15:37:27.897Z,99.90
2018-03-28T15:40:01.483Z,99.90
2018-03-28T15:42:35.014Z,99.90
2018-03-28T15:45:08.604Z,99.90
2018-03-28T15:47:42.170Z,99.90
2018-03-28T15:50:15.804Z,99.90
2018-03-28T15:52:49.498Z,99.90
2018-03-28T15:55:23.103Z,99.90
2018-03-28T15:57:56.672Z,99.90
2018-03-28T16:00:30.231Z,99.90
2018-03-28T16:03:03.910Z,99.90
2018-03-28T16:05:38.314Z,99.90
2018-03-28T16:08:11.808Z,99.90
2018-03-28T16:10:45.357Z,99.90
2018-03-28T16:13:18.907Z,99.90
2018-03-28T16:15:52.422Z,99.90
2018-03-28T16:18:26.746Z,99.90
2018-03-28T16:21:00.447Z,99.90
2018-03-28T16:23:34.015Z,99.90
2018-03-28T16:26:07.578Z,99.90
2018-03-28T16:28:41.243Z,99.90
2018-03-28T16:31:14.846Z,99.90
2018-03-28T16:33:48.435Z,99.90
2018-03-28T16:36:22.027Z,99.90
2018-03-28T16:38:55.547Z,99.90
2018-03-28T16:41:29.205Z,99.90
2018-03-28T16:44:02.969Z,99.90
2018-03-28T16:46:36.484Z,99.90
2018-03-28T16:49:10.068Z,99.90
2018-03-28T16:51:43.761Z,99.90
2018-03-28T16:54:17.440Z,99.90
2018-03-28T16:56:51.030Z,99.90
2018-03-28T16:59:24.560Z,99.90
2018-03-28T17:01:58.279Z,99.90
2018-03-28T17:04:32.774Z,99.90
2018-03-28T17:07:06.346Z,99.90
2018-03-28T17:09:39.980Z,99.90
2018-03-28T17:12:13.505Z,99.90
2018-03-28T17:14:47.048Z,99.90
2018-03-28T17:17:20.808Z,99.90
2018-03-28T17:19:54.365Z,99.90
2018-03-28T17:22:28.697Z,99.90
2018-03-28T17:25:03.064Z,99.90
2018-03-28T17:27:36.641Z,99.90
2018-03-28T17:30:10.249Z,99.90
2018-03-28T17:32:43.849Z,99.90
2018-03-28T17:35:17.334Z,99.90
2018-03-28T17:37:50.920Z,99.90
2018-03-28T17:40:24.496Z,99.90
2018-03-28T17:42:58.135Z,99.90
2018-03-28T17:45:31.684Z,99.90
2018-03-28T17:48:05.397Z,99.90
2018-03-28T17:50:38.951Z,99.90
2018-03-28T17:53:12.660Z,99.90
2018-03-28T17:55:46.235Z,99.90
2018-03-28T17:58:19.786Z,99.90
2018-03-28T18:00:53.328Z,99.90
2018-03-28T18:03:26.878Z,99.90
2018-03-28T18:06:00.595Z,99.90
2018-03-28T18:08:34.195Z,99.90
2018-03-28T18:11:08.582Z,99.90
2018-03-28T18:13:42.261Z,99.90
2018-03-28T18:16:15.941Z,99.90
2018-03-28T18:18:50.372Z,99.90
2018-03-28T18:21:23.991Z,99.90
2018-03-28T18:23:58.270Z,99.90
2018-03-28T18:26:31.802Z,99.90
2018-03-28T18:29:05.413Z,99.90
2018-03-28T18:31:38.966Z,99.90
2018-03-28T18:34:12.581Z,99.90
2018-03-28T18:36:46.198Z,99.90
2018-03-28T18:39:19.742Z,99.90
2018-03-28T18:41:53.305Z,99.90
2018-03-28T18:44:26.895Z,99.90
2018-03-28T18:47:00.454Z,99.90
2018-03-28T18:49:34.007Z,99.90
2018-03-28T18:52:07.577Z,99.90
2018-03-28T18:54:41.274Z,99.90
2018-03-28T18:57:14.798Z,99.90
2018-03-28T18:59:48.414Z,99.90
2018-03-28T19:02:21.977Z,99.90
2018-03-28T19:04:55.558Z,99.90
2018-03-28T19:07:29.179Z,99.90
2018-03-28T19:10:02.740Z,99.90
2018-03-28T19:12:36.290Z,99.90
2018-03-28T19:15:09.886Z,99.90
2018-03-28T19:17:43.446Z,99.90
2018-03-28T19:20:17.092Z,99.90
2018-03-28T19:22:50.581Z,99.90
2018-03-28T19:25:24.163Z,99.90
2018-03-28T19:27:58.514Z,99.90
2018-03-28T19:30:32.814Z,99.90
2018-03-28T19:33:06.506Z,99.90
2018-03-28T19:35:40.110Z,99.90
2018-03-28T19:38:13.729Z,99.90
2018-03-28T19:40:47.247Z,99.90
2018-03-28T19:43:20.852Z,99.90
2018-03-28T19:45:54.532Z,99.90
2018-03-28T19:48:28.053Z,99.90
2018-03-28T19:51:01.714Z,99.90
2018-03-28T19:53:35.245Z,99.90
2018-03-28T19:56:08.935Z,99.90
2018-03-28T19:58:42.515Z,99.90
2018-03-28T20:01:16.056Z,99.90
2018-03-28T20:03:50.337Z,99.90
2018-03-28T20:06:24.067Z,99.90
2018-03-28T20:08:57.669Z,99.90
2018-03-28T20:11:31.227Z,99.90
2018-03-28T20:14:04.841Z,99.90
2018-03-28T20:16:39.161Z,99.90
2018-03-28T20:19:12.876Z,99.90
2018-03-28T20:21:46.474Z,99.90
2018-03-28T20:24:20.047Z,99.90
2018-03-28T20:26:53.586Z,99.90
2018-03-28T20:29:27.147Z,99.90
2018-03-28T20:32:00.760Z,99.90
2018-03-28T20:34:34.274Z,99.90
2018-03-28T20:37:07.827Z,99.90
2018-03-28T20:39:41.387Z,99.90
2018-03-28T20:42:15.021Z,99.90
2018-03-28T20:44:48.770Z,99.90
2018-03-28T20:47:22.759Z,99.90
2018-03-28T20:49:56.605Z,99.90
2018-03-28T20:52:30.507Z,99.90
2018-03-28T20:55:04.125Z,99.90
2018-03-28T20:57:38.162Z,99.90
2018-03-28T21:00:11.876Z,99.90
2018-03-28T21:02:45.516Z,99.90
2018-03-28T21:05:19.572Z,99.90
2018-03-28T21:07:53.303Z,99.90
2018-03-28T21:10:26.907Z,99.90
2018-03-28T21:13:00.534Z,99.90
2018-03-28T21:15:34.242Z,99.90
2018-03-28T21:18:07.827Z,99.90
2018-03-28T21:20:41.429Z,99.90
2018-03-28T21:23:15.023Z,99.90
2018-03-28T21:25:48.597Z,99.90
2018-03-28T21:28:22.210Z,99.90
2018-03-28T21:30:55.863Z,99.90
2018-03-28T21:33:29.437Z,99.90
2018-03-28T21:36:03.007Z,99.90
2018-03-28T21:38:37.344Z,99.90
2018-03-28T21:41:10.910Z,99.90
2018-03-28T21:43:44.651Z,99.90
2018-03-28T21:46:18.241Z,99.90
2018-03-28T21:48:51.763Z,99.90
2018-03-28T21:51:26.097Z,99.90
2018-03-28T21:53:59.654Z,99.90
2018-03-28T21:56:33.249Z,99.90
2018-03-28T21:59:06.853Z,99.90
2018-03-28T22:01:40.382Z,99.90
2018-03-28T22:04:13.957Z,99.90
2018-03-28T22:06:48.278Z,99.90
2018-03-28T22:09:21.870Z,99.90
2018-03-28T22:11:55.411Z,99.90
2018-03-28T22:14:28.956Z,99.90
2018-03-28T22:17:02.475Z,99.90
2018-03-28T22:19:36.036Z,99.90
2018-03-28T22:22:09.604Z,99.90
2018-03-28T22:24:43.177Z,99.90
2018-03-28T22:27:16.742Z,99.90
2018-03-28T22:29:50.478Z,99.90
2018-03-28T22:32:24.039Z,99.90
2018-03-28T22:34:57.658Z,99.90
2018-03-28T22:37:31.262Z,99.90
2018-03-28T22:40:05.594Z,99.90
2018-03-28T22:42:39.343Z,99.90
2018-03-28T22:45:12.883Z,99.90
2018-03-28T22:47:47.326Z,99.90
2018-03-28T22:50:21.016Z,99.90
2018-03-28T22:52:54.566Z,99.90
2018-03-28T22:55:28.835Z,99.90
2018-03-28T22:58:02.431Z,99.90
2018-03-28T23:00:36.057Z,99.90
2018-03-28T23:03:09.637Z,99.90
2018-03-28T23:05:43.242Z,99.90
2018-03-28T23:08:16.794Z,99.90
2018-03-28T23:10:50.326Z,99.90
2018-03-28T23:13:24.039Z,99.90
2018-03-28T23:15:57.621Z,99.90
2018-03-28T23:18:31.976Z,99.90
2018-03-28T23:21:05.491Z,99.90
2018-03-28T23:23:39.070Z,99.90
2018-03-28T23:26:12.647Z,99.90
2018-03-28T23:28:46.996Z,99.90
2018-03-28T23:31:21.508Z,99.90
2018-03-28T23:33:55.218Z,99.90
2018-03-28T23:36:28.788Z,99.90
2018-03-28T23:39:02.413Z,99.90
2018-03-28T23:41:36.245Z,99.90
2018-03-28T23:44:10.544Z,99.90
2018-03-28T23:46:44.211Z,99.90
2018-03-28T23:49:17.924Z,99.90
2018-03-28T23:51:51.452Z,99.90
2018-03-28T23:54:25.047Z,99.90
2018-03-28T23:56:59.379Z,99.90
2018-03-28T23:59:33.034Z,99.90
